Time;durP1;ratioP1;P1;durP2;ratioP2;P2;SDS_P1;SDS_P2;PMS_P1;PMS_P2;Temp;Humidity;BMP_temperature;BMP_pressure;BME280_temperature;BME280_humidity;BME280_pressure;Samples;Min_cycle;Max_cycle;Signal;HPM_P1;HPM_P2
2023/06/25 00:01:00;;;;;;;10.85;7.40;;;;;;;;;;5060585;28;20204;-71
2023/06/25 00:03:27;;;;;;;9.05;6.70;;;;;;;;;;5060910;28;20201;-71
2023/06/25 00:05:53;;;;;;;7.43;6.30;;;;;;;;;;5060658;28;20220;-71
2023/06/25 00:08:19;;;;;;;6.78;6.05;;;;;;;;;;5060869;28;20501;-71
2023/06/25 00:10:46;;;;;;;7.28;6.57;;;;;;;;;;5060765;28;20433;-71
2023/06/25 00:13:12;;;;;;;7.18;6.47;;;;;;;;;;5061933;28;20196;-72
2023/06/25 00:15:38;;;;;;;7.07;6.38;;;;;;;;;;5065806;28;20193;-72
2023/06/25 00:18:08;;;;;;;7.07;6.47;;;;;;;;;;5065883;28;20201;-72
2023/06/25 00:20:34;;;;;;;6.43;5.90;;;;;;;;;;5065335;28;20204;-72
2023/06/25 00:23:00;;;;;;;6.80;6.20;;;;;;;;;;5065647;28;20474;-72
2023/06/25 00:25:27;;;;;;;8.80;6.78;;;;;;;;;;5065618;28;20416;-72
2023/06/25 00:27:57;;;;;;;7.18;6.47;;;;;;;;;;5065560;28;20559;-72
2023/06/25 00:30:24;;;;;;;7.55;6.75;;;;;;;;;;5065377;28;20231;-72
2023/06/25 00:32:54;;;;;;;7.32;6.57;;;;;;;;;;5065507;28;20497;-72
2023/06/25 00:35:24;;;;;;;8.23;7.05;;;;;;;;;;5065342;28;20193;-72
2023/06/25 00:37:51;;;;;;;8.27;7.10;;;;;;;;;;5065689;28;20201;-71
2023/06/25 00:40:17;;;;;;;11.05;6.88;;;;;;;;;;5065126;28;20518;-71
2023/06/25 00:42:44;;;;;;;7.68;7.03;;;;;;;;;;5065358;28;20197;-71
2023/06/25 00:45:14;;;;;;;7.15;6.45;;;;;;;;;;5065142;28;20554;-71
2023/06/25 00:47:41;;;;;;;7.53;6.72;;;;;;;;;;5065116;28;20392;-71
2023/06/25 00:50:11;;;;;;;7.05;6.35;;;;;;;;;;5064909;28;20219;-72
2023/06/25 00:52:38;;;;;;;6.97;6.25;;;;;;;;;;5065387;28;20224;-72
2023/06/25 00:55:08;;;;;;;7.90;7.13;;;;;;;;;;5065290;28;20227;-71
2023/06/25 00:57:34;;;;;;;7.95;7.22;;;;;;;;;;5065082;28;20244;-71
2023/06/25 01:00:01;;;;;;;7.80;7.00;;;;;;;;;;5064601;28;20341;-71
2023/06/25 01:02:32;;;;;;;8.25;6.28;;;;;;;;;;5065187;28;20457;-72
2023/06/25 01:05:02;;;;;;;6.65;6.10;;;;;;;;;;5064999;28;20233;-72
2023/06/25 01:07:28;;;;;;;7.15;6.15;;;;;;;;;;5064809;28;20205;-72
2023/06/25 01:09:56;;;;;;;7.32;6.70;;;;;;;;;;5064791;28;20216;-72
2023/06/25 01:12:23;;;;;;;7.95;7.25;;;;;;;;;;5064683;28;20197;-72
2023/06/25 01:14:49;;;;;;;11.38;8.65;;;;;;;;;;5064892;28;20201;-72
2023/06/25 01:17:16;;;;;;;10.05;8.82;;;;;;;;;;5064937;28;20551;-72
2023/06/25 01:19:42;;;;;;;13.55;10.57;;;;;;;;;;5064640;28;20220;-72
2023/06/25 01:22:09;;;;;;;11.52;9.35;;;;;;;;;;5064634;28;20505;-72
2023/06/25 01:24:37;;;;;;;10.90;8.98;;;;;;;;;;5064179;28;20224;-72
2023/06/25 01:27:04;;;;;;;10.73;8.70;;;;;;;;;;5064327;28;20228;-72
2023/06/25 01:29:32;;;;;;;10.85;8.30;;;;;;;;;;5064175;28;20493;-72
2023/06/25 01:31:58;;;;;;;9.20;8.30;;;;;;;;;;5064478;28;20280;-72
2023/06/25 01:34:25;;;;;;;10.80;8.55;;;;;;;;;;5064716;28;20204;-72
2023/06/25 01:36:52;;;;;;;8.88;8.07;;;;;;;;;;5064304;28;20197;-72
2023/06/25 01:39:19;;;;;;;8.15;7.28;;;;;;;;;;5063999;28;20302;-72
2023/06/25 01:41:47;;;;;;;9.60;7.80;;;;;;;;;;5063777;28;20264;-72
2023/06/25 01:44:15;;;;;;;8.90;7.40;;;;;;;;;;5064181;28;20197;-72
2023/06/25 01:46:41;;;;;;;8.15;7.40;;;;;;;;;;5064260;28;20239;-72
2023/06/25 01:49:07;;;;;;;9.15;7.60;;;;;;;;;;5063964;28;20197;-72
2023/06/25 01:51:33;;;;;;;9.57;8.07;;;;;;;;;;5064028;28;20196;-72
2023/06/25 01:54:00;;;;;;;8.07;7.28;;;;;;;;;;5064261;28;20204;-72
2023/06/25 01:56:26;;;;;;;9.40;7.78;;;;;;;;;;5064202;28;20268;-72
2023/06/25 01:58:54;;;;;;;7.82;6.57;;;;;;;;;;5063782;28;20376;-72
2023/06/25 02:01:20;;;;;;;7.65;6.95;;;;;;;;;;5064011;28;20203;-72
2023/06/25 02:03:46;;;;;;;7.15;6.50;;;;;;;;;;5063780;28;20196;-72
2023/06/25 02:06:14;;;;;;;7.13;6.30;;;;;;;;;;5063728;28;20385;-72
2023/06/25 02:08:40;;;;;;;6.50;5.68;;;;;;;;;;5063482;28;20395;-72
2023/06/25 02:11:07;;;;;;;6.55;6.05;;;;;;;;;;5063467;28;20424;-72
2023/06/25 02:13:33;;;;;;;6.93;6.10;;;;;;;;;;5063711;28;20205;-72
2023/06/25 02:16:01;;;;;;;6.85;6.25;;;;;;;;;;5063582;28;20576;-72
2023/06/25 02:18:28;;;;;;;6.95;6.35;;;;;;;;;;5063467;28;20204;-72
2023/06/25 02:20:54;;;;;;;7.00;6.40;;;;;;;;;;5063633;28;20197;-72
2023/06/25 02:23:20;;;;;;;6.75;6.15;;;;;;;;;;5063668;28;20319;-72
2023/06/25 02:25:46;;;;;;;7.22;6.53;;;;;;;;;;5063284;28;20227;-72
2023/06/25 02:28:13;;;;;;;7.07;6.38;;;;;;;;;;5063300;28;20224;-72
2023/06/25 02:30:39;;;;;;;6.95;6.35;;;;;;;;;;5063219;28;20198;-72
2023/06/25 02:33:07;;;;;;;6.75;6.18;;;;;;;;;;5063227;28;20204;-72
2023/06/25 02:35:33;;;;;;;6.80;6.20;;;;;;;;;;5063063;28;20199;-72
2023/06/25 02:37:59;;;;;;;6.45;5.68;;;;;;;;;;5063027;28;20203;-72
2023/06/25 02:40:27;;;;;;;6.88;6.28;;;;;;;;;;5063000;28;20372;-72
2023/06/25 02:42:53;;;;;;;6.70;6.10;;;;;;;;;;5063224;28;20264;-72
2023/06/25 02:45:19;;;;;;;6.60;6.00;;;;;;;;;;5062987;28;20445;-72
2023/06/25 02:47:46;;;;;;;5.95;5.45;;;;;;;;;;5062890;28;20212;-72
2023/06/25 02:50:13;;;;;;;7.13;5.82;;;;;;;;;;5062576;28;20224;-72
2023/06/25 02:52:39;;;;;;;6.70;5.80;;;;;;;;;;5063124;28;20204;-72
2023/06/25 02:55:06;;;;;;;6.55;5.55;;;;;;;;;;5062948;28;20216;-73
2023/06/25 02:57:32;;;;;;;6.45;5.70;;;;;;;;;;5063417;28;20430;-72
2023/06/25 02:59:59;;;;;;;5.15;4.75;;;;;;;;;;5062508;28;20201;-72
2023/06/25 03:02:26;;;;;;;6.45;5.95;;;;;;;;;;5062707;28;20268;-72
2023/06/25 03:04:52;;;;;;;6.70;6.18;;;;;;;;;;5062671;28;20200;-72
2023/06/25 03:07:20;;;;;;;7.40;6.28;;;;;;;;;;5062666;28;20201;-72
2023/06/25 03:09:46;;;;;;;6.20;5.75;;;;;;;;;;5062246;28;20203;-72
2023/06/25 03:12:12;;;;;;;6.55;5.95;;;;;;;;;;5062581;28;20203;-72
2023/06/25 03:14:38;;;;;;;6.80;5.93;;;;;;;;;;5062375;28;20447;-72
2023/06/25 03:17:05;;;;;;;6.43;5.88;;;;;;;;;;5062409;28;20382;-72
2023/06/25 03:19:31;;;;;;;6.65;6.05;;;;;;;;;;5062548;28;20197;-72
2023/06/25 03:21:58;;;;;;;6.43;5.70;;;;;;;;;;5062401;28;20201;-72
2023/06/25 03:24:25;;;;;;;7.07;5.78;;;;;;;;;;5062497;28;20200;-72
2023/06/25 03:26:51;;;;;;;6.50;5.90;;;;;;;;;;5062077;28;20228;-72
2023/06/25 03:29:18;;;;;;;6.72;6.13;;;;;;;;;;5062013;28;20197;-72
2023/06/25 03:31:44;;;;;;;6.82;6.25;;;;;;;;;;5062104;28;20197;-72
2023/06/25 03:34:10;;;;;;;7.10;6.50;;;;;;;;;;5062386;28;20259;-72
2023/06/25 03:36:37;;;;;;;7.13;6.45;;;;;;;;;;5062098;28;20201;-72
2023/06/25 03:39:03;;;;;;;6.38;5.88;;;;;;;;;;5062117;28;20393;-72
2023/06/25 03:41:31;;;;;;;7.90;6.68;;;;;;;;;;5061967;28;20217;-72
2023/06/25 03:43:57;;;;;;;6.53;6.03;;;;;;;;;;5062037;28;20196;-72
2023/06/25 03:46:23;;;;;;;6.80;6.30;;;;;;;;;;5061818;28;20221;-72
2023/06/25 03:48:49;;;;;;;7.50;6.80;;;;;;;;;;5061928;28;20197;-72
2023/06/25 03:51:16;;;;;;;7.55;6.28;;;;;;;;;;5061962;28;20197;-72
2023/06/25 03:53:42;;;;;;;6.88;6.28;;;;;;;;;;5062019;28;20200;-72
2023/06/25 03:56:08;;;;;;;6.93;6.32;;;;;;;;;;5061777;28;20204;-72
2023/06/25 03:58:36;;;;;;;7.30;6.60;;;;;;;;;;5061952;28;20370;-72
2023/06/25 04:01:02;;;;;;;6.88;6.28;;;;;;;;;;5061467;28;20201;-72
2023/06/25 04:03:28;;;;;;;7.80;6.75;;;;;;;;;;5061805;28;20208;-72
2023/06/25 04:05:55;;;;;;;6.97;6.38;;;;;;;;;;5061765;28;20264;-72
2023/06/25 04:08:21;;;;;;;6.35;5.82;;;;;;;;;;5061829;28;20204;-72
2023/06/25 04:10:47;;;;;;;6.57;6.00;;;;;;;;;;5061653;28;20202;-72
2023/06/25 04:13:14;;;;;;;6.10;5.63;;;;;;;;;;5061845;28;20249;-72
2023/06/25 04:15:41;;;;;;;5.57;5.18;;;;;;;;;;5061680;28;20200;-71
2023/06/25 04:18:07;;;;;;;6.45;5.82;;;;;;;;;;5062050;28;20396;-71
2023/06/25 04:20:34;;;;;;;5.75;5.38;;;;;;;;;;5061846;28;20539;-71
2023/06/25 04:23:01;;;;;;;6.45;5.85;;;;;;;;;;5061879;28;20507;-71
2023/06/25 04:25:27;;;;;;;6.00;5.60;;;;;;;;;;5061818;28;20217;-71
2023/06/25 04:27:54;;;;;;;6.70;6.10;;;;;;;;;;5061498;28;20224;-71
2023/06/25 04:30:21;;;;;;;6.20;5.70;;;;;;;;;;5061401;28;20197;-71
2023/06/25 04:32:49;;;;;;;6.55;6.13;;;;;;;;;;5061505;28;20197;-71
2023/06/25 04:35:15;;;;;;;6.68;5.70;;;;;;;;;;5061741;28;20197;-71
2023/06/25 04:37:42;;;;;;;7.00;6.35;;;;;;;;;;5061521;28;20201;-69
2023/06/25 04:40:09;;;;;;;6.53;6.03;;;;;;;;;;5061345;28;20200;-69
2023/06/25 04:42:35;;;;;;;6.93;6.38;;;;;;;;;;5061275;28;20204;-70
2023/06/25 04:45:01;;;;;;;6.93;6.22;;;;;;;;;;5061422;28;20197;-69
2023/06/25 04:47:27;;;;;;;9.63;7.03;;;;;;;;;;5061423;28;20503;-69
2023/06/25 04:49:55;;;;;;;6.90;6.35;;;;;;;;;;5061307;28;20268;-69
2023/06/25 04:52:21;;;;;;;6.85;6.25;;;;;;;;;;5061359;28;20198;-69
2023/06/25 04:54:47;;;;;;;7.72;6.20;;;;;;;;;;5061355;28;20421;-69
2023/06/25 04:57:14;;;;;;;6.95;6.38;;;;;;;;;;5061188;28;20433;-71
2023/06/25 04:59:40;;;;;;;7.18;6.57;;;;;;;;;;5062781;28;20236;-71
2023/06/25 05:02:07;;;;;;;7.03;6.43;;;;;;;;;;5065310;28;20211;-71
2023/06/25 05:04:33;;;;;;;7.75;6.95;;;;;;;;;;5064828;28;20197;-69
2023/06/25 05:07:01;;;;;;;7.38;6.78;;;;;;;;;;5064706;28;20223;-72
2023/06/25 05:09:27;;;;;;;7.32;6.72;;;;;;;;;;5064953;28;20203;-70
2023/06/25 05:11:53;;;;;;;7.18;6.53;;;;;;;;;;5064659;28;20291;-69
2023/06/25 05:14:20;;;;;;;7.10;6.50;;;;;;;;;;5064527;28;20204;-69
2023/06/25 05:16:46;;;;;;;7.60;6.68;;;;;;;;;;5064948;28;20523;-71
2023/06/25 05:19:12;;;;;;;8.23;6.82;;;;;;;;;;5064280;28;20223;-70
2023/06/25 05:21:38;;;;;;;7.57;6.38;;;;;;;;;;5064702;28;20508;-70
2023/06/25 05:24:07;;;;;;;8.05;6.57;;;;;;;;;;5064522;28;20243;-70
2023/06/25 05:26:33;;;;;;;6.43;5.93;;;;;;;;;;5064435;28;20233;-70
2023/06/25 05:29:00;;;;;;;7.15;6.53;;;;;;;;;;5064258;28;20217;-70
2023/06/25 05:31:26;;;;;;;7.00;6.45;;;;;;;;;;5064489;28;20201;-70
2023/06/25 05:33:52;;;;;;;6.25;5.70;;;;;;;;;;5064387;28;20197;-70
2023/06/25 05:36:19;;;;;;;7.18;6.57;;;;;;;;;;5064321;28;20193;-70
2023/06/25 05:38:45;;;;;;;6.75;6.15;;;;;;;;;;5064217;28;20197;-70
2023/06/25 05:41:13;;;;;;;7.05;6.35;;;;;;;;;;5064111;28;20201;-70
2023/06/25 05:43:39;;;;;;;7.78;6.13;;;;;;;;;;5064405;28;20196;-70
2023/06/25 05:46:11;;;;;;;6.65;6.15;;;;;;;;;;5064164;28;20217;-70
2023/06/25 05:48:37;;;;;;;7.65;6.88;;;;;;;;;;5064127;28;20204;-70
2023/06/25 05:51:03;;;;;;;6.93;6.32;;;;;;;;;;5063878;28;20530;-70
2023/06/25 05:53:37;;;;;;;7.18;6.35;;;;;;;;;;5063871;28;20505;-70
2023/06/25 05:56:04;;;;;;;5.93;5.50;;;;;;;;;;5063956;28;20200;-70
2023/06/25 05:58:31;;;;;;;7.57;6.47;;;;;;;;;;5063939;28;20197;-70
2023/06/25 06:00:57;;;;;;;6.13;5.72;;;;;;;;;;5063763;28;20201;-70
2023/06/25 06:03:24;;;;;;;6.20;5.65;;;;;;;;;;5063715;28;20201;-70
2023/06/25 06:05:50;;;;;;;5.95;5.55;;;;;;;;;;5063706;28;20205;-70
2023/06/25 06:08:16;;;;;;;5.95;5.18;;;;;;;;;;5063678;28;20424;-70
2023/06/25 06:10:43;;;;;;;5.50;5.15;;;;;;;;;;5062578;28;20198;-70
2023/06/25 06:13:09;;;;;;;6.78;6.18;;;;;;;;;;5063499;28;20197;-70
2023/06/25 06:15:36;;;;;;;6.65;5.55;;;;;;;;;;5063645;28;20197;-70
2023/06/25 06:18:03;;;;;;;5.93;5.53;;;;;;;;;;5063731;28;20395;-70
2023/06/25 06:20:29;;;;;;;6.28;5.55;;;;;;;;;;5063671;28;20204;-70
2023/06/25 06:22:57;;;;;;;6.68;5.65;;;;;;;;;;5063535;28;20301;-70
2023/06/25 06:25:23;;;;;;;5.85;5.45;;;;;;;;;;5063651;28;20201;-71
2023/06/25 06:27:50;;;;;;;6.40;5.90;;;;;;;;;;5063379;28;20233;-70
2023/06/25 06:30:16;;;;;;;6.15;5.65;;;;;;;;;;5063089;28;20201;-70
2023/06/25 06:32:44;;;;;;;6.38;5.45;;;;;;;;;;5063241;28;20204;-70
2023/06/25 06:35:10;;;;;;;5.55;5.20;;;;;;;;;;5063036;28;20200;-70
2023/06/25 06:37:37;;;;;;;6.57;5.97;;;;;;;;;;5063460;28;20265;-70
2023/06/25 06:40:03;;;;;;;5.90;4.82;;;;;;;;;;5063063;28;20204;-70
2023/06/25 06:42:29;;;;;;;6.47;5.97;;;;;;;;;;5063533;28;20205;-70
2023/06/25 06:44:56;;;;;;;8.60;5.57;;;;;;;;;;5063395;28;20200;-70
2023/06/25 06:47:22;;;;;;;5.93;5.43;;;;;;;;;;5063179;28;20220;-71
2023/06/25 06:49:49;;;;;;;8.23;5.88;;;;;;;;;;5062822;28;20219;-71
2023/06/25 06:52:16;;;;;;;6.40;5.78;;;;;;;;;;5063141;28;20201;-71
2023/06/25 06:54:42;;;;;;;5.80;5.30;;;;;;;;;;5063019;28;20205;-71
2023/06/25 06:57:08;;;;;;;6.72;5.90;;;;;;;;;;5063044;28;20193;-71
2023/06/25 06:59:34;;;;;;;7.65;5.78;;;;;;;;;;5062885;28;20197;-71
2023/06/25 07:02:01;;;;;;;6.57;5.97;;;;;;;;;;5062952;28;20204;-71
2023/06/25 07:04:27;;;;;;;6.85;6.25;;;;;;;;;;5062773;28;20205;-71
2023/06/25 07:06:54;;;;;;;6.53;5.90;;;;;;;;;;5062898;28;20225;-71
2023/06/25 07:09:22;;;;;;;5.97;5.47;;;;;;;;;;5062621;28;20232;-71
2023/06/25 07:11:48;;;;;;;7.40;5.88;;;;;;;;;;5062876;28;20203;-71
2023/06/25 07:14:14;;;;;;;6.13;5.65;;;;;;;;;;5062640;28;20204;-71
2023/06/25 07:16:41;;;;;;;6.72;6.10;;;;;;;;;;5062582;28;20200;-71
2023/06/25 07:19:08;;;;;;;6.53;5.93;;;;;;;;;;5062377;28;20232;-72
2023/06/25 07:21:34;;;;;;;6.63;6.03;;;;;;;;;;5062458;28;20200;-72
2023/06/25 07:24:02;;;;;;;8.40;6.32;;;;;;;;;;5062366;28;20221;-72
2023/06/25 07:26:28;;;;;;;6.50;6.00;;;;;;;;;;5062428;28;20224;-72
2023/06/25 07:28:55;;;;;;;7.07;6.32;;;;;;;;;;5062269;28;20217;-72
2023/06/25 07:31:21;;;;;;;6.95;5.78;;;;;;;;;;5062474;28;20217;-72
2023/06/25 07:33:47;;;;;;;7.32;6.13;;;;;;;;;;5062616;28;20203;-72
2023/06/25 07:36:14;;;;;;;7.00;6.40;;;;;;;;;;5062274;28;20209;-72
2023/06/25 07:38:40;;;;;;;6.47;5.85;;;;;;;;;;5062461;28;20428;-71
2023/06/25 07:41:07;;;;;;;7.18;6.57;;;;;;;;;;5062195;28;20207;-71
2023/06/25 07:43:34;;;;;;;6.53;6.03;;;;;;;;;;5062435;28;20500;-71
2023/06/25 07:46:00;;;;;;;7.97;6.38;;;;;;;;;;5062202;28;20504;-71
2023/06/25 07:48:26;;;;;;;7.03;6.43;;;;;;;;;;5062071;28;20220;-71
2023/06/25 07:50:52;;;;;;;6.55;5.82;;;;;;;;;;5061886;28;20201;-63
2023/06/25 07:53:19;;;;;;;6.32;5.50;;;;;;;;;;5062317;28;20197;-63
2023/06/25 07:55:46;;;;;;;8.27;7.05;;;;;;;;;;5062237;28;20204;-63
2023/06/25 07:58:14;;;;;;;6.90;6.35;;;;;;;;;;5062517;28;20193;-63
2023/06/25 08:00:40;;;;;;;6.55;5.97;;;;;;;;;;5061881;28;20627;-63
2023/06/25 08:03:07;;;;;;;8.57;6.78;;;;;;;;;;5062176;28;20197;-63
2023/06/25 08:05:33;;;;;;;6.70;6.05;;;;;;;;;;5062095;28;20204;-63
2023/06/25 08:08:00;;;;;;;6.63;6.20;;;;;;;;;;5061714;28;20224;-63
2023/06/25 08:10:26;;;;;;;6.93;6.32;;;;;;;;;;5061811;28;20520;-63
2023/06/25 08:12:52;;;;;;;6.85;6.22;;;;;;;;;;5061929;28;20496;-63
2023/06/25 08:15:20;;;;;;;7.28;6.30;;;;;;;;;;5061998;28;20219;-63
2023/06/25 08:17:46;;;;;;;7.07;6.47;;;;;;;;;;5062184;28;20196;-63
2023/06/25 08:20:12;;;;;;;6.90;6.38;;;;;;;;;;5062111;28;20386;-63
2023/06/25 08:22:39;;;;;;;7.82;6.18;;;;;;;;;;5062114;28;20238;-63
2023/06/25 08:25:06;;;;;;;7.22;6.60;;;;;;;;;;5061863;28;20201;-63
2023/06/25 08:27:33;;;;;;;6.50;6.00;;;;;;;;;;5061468;28;20239;-74
2023/06/25 08:29:59;;;;;;;6.32;5.82;;;;;;;;;;5061510;28;20452;-74
2023/06/25 08:32:27;;;;;;;7.40;5.53;;;;;;;;;;5061841;28;20201;-74
2023/06/25 08:34:53;;;;;;;5.85;5.40;;;;;;;;;;5063971;28;20522;-74
2023/06/25 08:37:19;;;;;;;6.25;5.75;;;;;;;;;;5065556;28;20496;-74
2023/06/25 08:39:45;;;;;;;5.93;5.43;;;;;;;;;;5065345;28;20488;-74
2023/06/25 08:42:12;;;;;;;6.28;5.78;;;;;;;;;;5065434;28;20412;-75
2023/06/25 08:44:38;;;;;;;6.18;5.68;;;;;;;;;;5065508;28;20196;-75
2023/06/25 08:47:06;;;;;;;7.07;5.82;;;;;;;;;;5065375;28;20216;-74
2023/06/25 08:49:35;;;;;;;6.90;5.85;;;;;;;;;;5065191;28;20219;-74
2023/06/25 08:52:02;;;;;;;5.72;5.22;;;;;;;;;;5065338;28;20204;-74
2023/06/25 08:54:29;;;;;;;6.75;6.25;;;;;;;;;;5064989;28;20201;-74
2023/06/25 08:56:55;;;;;;;6.57;5.97;;;;;;;;;;5065018;28;20204;-74
2023/06/25 08:59:21;;;;;;;7.40;6.10;;;;;;;;;;5065003;28;20201;-74
2023/06/25 09:01:48;;;;;;;6.40;5.90;;;;;;;;;;5066600;28;20204;-74
2023/06/25 09:04:14;;;;;;;17.00;6.45;;;;;;;;;;5084852;28;20196;-74
2023/06/25 09:06:41;;;;;;;11.70;6.72;;;;;;;;;;5084000;28;20203;-74
2023/06/25 09:09:09;;;;;;;6.00;5.50;;;;;;;;;;5083536;28;20480;-74
2023/06/25 09:11:35;;;;;;;7.30;5.35;;;;;;;;;;5085277;28;20202;-74
2023/06/25 09:14:02;;;;;;;6.30;5.70;;;;;;;;;;5085047;28;20503;-74
2023/06/25 09:16:29;;;;;;;6.43;5.68;;;;;;;;;;5084687;28;20271;-75
2023/06/25 09:18:55;;;;;;;6.03;5.63;;;;;;;;;;5084521;28;20207;-75
2023/06/25 09:21:21;;;;;;;6.30;5.70;;;;;;;;;;5084308;28;20496;-74
2023/06/25 09:23:51;;;;;;;8.48;5.45;;;;;;;;;;5084355;28;20211;-75
2023/06/25 09:26:18;;;;;;;6.00;5.57;;;;;;;;;;5084332;28;20361;-75
2023/06/25 09:28:47;;;;;;;6.40;5.80;;;;;;;;;;5083827;28;20227;-75
2023/06/25 09:31:15;;;;;;;6.47;5.88;;;;;;;;;;5084737;28;20219;-75
2023/06/25 09:33:41;;;;;;;6.68;5.88;;;;;;;;;;5084596;28;20203;-75
2023/06/25 09:36:08;;;;;;;8.15;5.75;;;;;;;;;;5084222;28;20383;-75
2023/06/25 09:38:34;;;;;;;6.25;5.75;;;;;;;;;;5084323;28;20396;-75
2023/06/25 09:41:02;;;;;;;6.63;6.03;;;;;;;;;;5084406;28;20526;-75
2023/06/25 09:43:29;;;;;;;7.78;6.00;;;;;;;;;;5084400;28;20239;-75
2023/06/25 09:45:56;;;;;;;6.20;5.70;;;;;;;;;;5084192;28;20196;-75
2023/06/25 09:48:24;;;;;;;6.55;5.95;;;;;;;;;;5084301;28;20523;-75
2023/06/25 09:50:50;;;;;;;6.57;6.03;;;;;;;;;;5084106;28;20196;-75
2023/06/25 09:53:18;;;;;;;7.70;6.90;;;;;;;;;;5084232;28;20519;-75
2023/06/25 09:55:45;;;;;;;6.68;5.97;;;;;;;;;;5084012;28;20196;-74
2023/06/25 09:58:13;;;;;;;6.88;6.35;;;;;;;;;;5084156;28;20214;-74
2023/06/25 10:00:39;;;;;;;6.93;6.32;;;;;;;;;;5083801;28;20375;-74
2023/06/25 10:03:06;;;;;;;6.78;6.20;;;;;;;;;;5084026;28;20202;-74
2023/06/25 10:05:32;;;;;;;6.95;6.45;;;;;;;;;;5084099;28;20200;-74
2023/06/25 10:07:59;;;;;;;8.60;6.40;;;;;;;;;;5083991;28;20219;-74
2023/06/25 10:10:27;;;;;;;7.57;6.97;;;;;;;;;;5083576;28;20488;-73
2023/06/25 10:12:53;;;;;;;6.70;5.97;;;;;;;;;;5083713;28;20195;-73
2023/06/25 10:15:30;;;;;;;10.93;6.85;;;;;;;;;;5083796;28;20203;-73
2023/06/25 10:17:57;;;;;;;6.55;6.05;;;;;;;;;;5083481;28;20200;-73
2023/06/25 10:20:28;;;;;;;7.15;6.35;;;;;;;;;;5083889;28;20207;-73
2023/06/25 10:23:10;;;;;;;7.50;6.35;;;;;;;;;;5083704;28;20219;-73
2023/06/25 10:25:37;;;;;;;7.13;6.57;;;;;;;;;;5083602;28;20211;-73
2023/06/25 10:28:04;;;;;;;6.68;6.18;;;;;;;;;;5083471;28;20222;-73
2023/06/25 10:30:37;;;;;;;6.88;6.38;;;;;;;;;;5083049;28;20196;-74
2023/06/25 10:33:04;;;;;;;7.13;6.53;;;;;;;;;;5083748;28;20195;-74
2023/06/25 10:35:36;;;;;;;7.45;6.72;;;;;;;;;;5083875;28;20196;-74
2023/06/25 10:38:02;;;;;;;7.53;6.82;;;;;;;;;;5083776;28;20192;-74
2023/06/25 10:40:33;;;;;;;8.60;6.40;;;;;;;;;;5083611;28;20203;-74
2023/06/25 10:42:59;;;;;;;7.07;6.47;;;;;;;;;;5083598;28;20184;-74
2023/06/25 10:45:25;;;;;;;6.88;6.22;;;;;;;;;;5083854;28;20208;-74
2023/06/25 10:48:01;;;;;;;6.50;6.00;;;;;;;;;;5083515;28;20286;-74
2023/06/25 10:50:29;;;;;;;6.63;6.22;;;;;;;;;;5083441;28;20200;-74
2023/06/25 10:52:55;;;;;;;7.03;6.43;;;;;;;;;;5083446;28;20203;-74
2023/06/25 10:55:22;;;;;;;8.90;6.80;;;;;;;;;;5083325;28;20195;-74
2023/06/25 10:57:49;;;;;;;7.50;6.65;;;;;;;;;;5082342;28;20406;-74
2023/06/25 11:00:16;;;;;;;8.07;6.80;;;;;;;;;;5083685;28;20188;-74
2023/06/25 11:02:42;;;;;;;7.22;6.57;;;;;;;;;;5083560;28;20223;-73
2023/06/25 11:05:11;;;;;;;7.45;6.78;;;;;;;;;;5083697;28;20199;-74
2023/06/25 11:07:37;;;;;;;7.75;6.72;;;;;;;;;;5082768;28;20227;-75
2023/06/25 11:10:04;;;;;;;7.80;6.85;;;;;;;;;;5083383;28;20204;-75
2023/06/25 11:12:30;;;;;;;6.82;6.32;;;;;;;;;;5083216;28;20196;-74
2023/06/25 11:14:56;;;;;;;6.90;6.30;;;;;;;;;;5083036;28;20208;-75
2023/06/25 11:17:23;;;;;;;7.78;7.07;;;;;;;;;;5083083;28;20192;-75
2023/06/25 11:19:50;;;;;;;7.25;6.40;;;;;;;;;;5082580;28;20212;-75
2023/06/25 11:22:18;;;;;;;7.50;6.72;;;;;;;;;;5082709;28;20196;-75
2023/06/25 11:24:44;;;;;;;6.55;6.00;;;;;;;;;;5082555;28;20196;-75
2023/06/25 11:27:10;;;;;;;7.20;6.50;;;;;;;;;;5082703;28;20449;-75
2023/06/25 11:29:37;;;;;;;7.05;6.45;;;;;;;;;;5082647;28;20231;-75
2023/06/25 11:32:05;;;;;;;7.25;6.55;;;;;;;;;;5082655;28;20196;-74
2023/06/25 11:34:32;;;;;;;7.57;6.78;;;;;;;;;;5082717;28;20196;-75
2023/06/25 11:37:08;;;;;;;7.10;6.50;;;;;;;;;;5081980;28;20234;-74
2023/06/25 11:39:43;;;;;;;6.32;5.82;;;;;;;;;;5082118;28;20191;-74
2023/06/25 11:42:10;;;;;;;7.53;6.80;;;;;;;;;;5082689;28;20236;-74
2023/06/25 11:44:36;;;;;;;6.97;6.28;;;;;;;;;;5082721;28;20246;-75
2023/06/25 11:47:03;;;;;;;7.47;6.63;;;;;;;;;;5082744;28;20203;-76
2023/06/25 11:49:29;;;;;;;7.18;6.57;;;;;;;;;;5082167;28;20220;-75
2023/06/25 11:51:55;;;;;;;7.72;7.10;;;;;;;;;;5082690;28;20203;-75
2023/06/25 11:54:21;;;;;;;6.88;6.28;;;;;;;;;;5082660;28;20199;-76
2023/06/25 11:56:49;;;;;;;7.03;6.53;;;;;;;;;;5082410;28;20206;-75
2023/06/25 11:59:15;;;;;;;7.68;7.00;;;;;;;;;;5082215;28;20382;-75
2023/06/25 12:01:42;;;;;;;7.30;6.75;;;;;;;;;;5082487;28;20506;-76
2023/06/25 12:04:08;;;;;;;7.13;6.50;;;;;;;;;;5083104;28;20200;-75
2023/06/25 12:06:34;;;;;;;7.10;6.57;;;;;;;;;;5076296;28;20199;-76
2023/06/25 12:09:02;;;;;;;7.30;6.68;;;;;;;;;;5082636;28;20226;-75
2023/06/25 12:11:28;;;;;;;7.53;6.82;;;;;;;;;;5087284;28;20392;-75
2023/06/25 12:13:56;;;;;;;7.07;6.40;;;;;;;;;;5087195;28;20196;-76
2023/06/25 12:16:22;;;;;;;7.68;6.95;;;;;;;;;;5086731;28;20200;-76
2023/06/25 12:18:48;;;;;;;7.37;6.77;;;;;;;;;;5086471;28;20346;-73
2023/06/25 12:21:15;;;;;;;7.03;6.53;;;;;;;;;;5086380;28;20286;-73
2023/06/25 12:23:41;;;;;;;7.40;6.80;;;;;;;;;;5086557;28;20230;-73
2023/06/25 12:26:08;;;;;;;7.65;7.03;;;;;;;;;;5086405;28;20196;-73
2023/06/25 12:28:34;;;;;;;7.30;6.60;;;;;;;;;;5086491;28;20542;-73
2023/06/25 12:31:02;;;;;;;6.78;6.18;;;;;;;;;;5086357;28;20492;-73
2023/06/25 12:33:28;;;;;;;7.35;6.75;;;;;;;;;;5086494;28;20196;-73
2023/06/25 12:35:54;;;;;;;6.22;5.82;;;;;;;;;;5087229;28;20388;-72
2023/06/25 12:38:21;;;;;;;6.95;6.45;;;;;;;;;;5086851;28;20192;-72
2023/06/25 12:40:47;;;;;;;7.45;6.72;;;;;;;;;;5085873;28;20203;-72
2023/06/25 12:43:13;;;;;;;6.85;6.18;;;;;;;;;;5085820;28;20203;-73
2023/06/25 12:45:40;;;;;;;7.38;6.68;;;;;;;;;;5086038;28;20203;-73
2023/06/25 12:48:08;;;;;;;6.53;6.10;;;;;;;;;;5085285;28;20291;-73
2023/06/25 12:50:34;;;;;;;8.38;6.00;;;;;;;;;;5085513;28;20195;-73
2023/06/25 12:53:00;;;;;;;6.88;6.38;;;;;;;;;;5085252;28;20263;-73
2023/06/25 12:55:27;;;;;;;6.70;6.00;;;;;;;;;;5085112;28;20268;-73
2023/06/25 12:57:53;;;;;;;6.82;6.30;;;;;;;;;;5085836;28;20196;-73
2023/06/25 13:00:19;;;;;;;6.47;6.05;;;;;;;;;;5085103;28;20199;-72
2023/06/25 13:02:46;;;;;;;6.38;5.85;;;;;;;;;;5085277;28;20496;-73
2023/06/25 13:05:13;;;;;;;7.00;6.40;;;;;;;;;;5085293;28;20425;-73
2023/06/25 13:07:40;;;;;;;6.72;6.22;;;;;;;;;;5085080;28;20231;-73
2023/06/25 13:10:06;;;;;;;8.95;6.45;;;;;;;;;;5084906;28;20258;-73
2023/06/25 13:12:33;;;;;;;7.10;6.50;;;;;;;;;;5085174;28;20196;-73
2023/06/25 13:14:59;;;;;;;7.38;6.75;;;;;;;;;;5084946;28;20203;-73
2023/06/25 13:17:25;;;;;;;7.18;6.47;;;;;;;;;;5085163;28;20203;-73
2023/06/25 13:19:51;;;;;;;6.38;5.97;;;;;;;;;;5084223;28;20192;-73
2023/06/25 13:22:19;;;;;;;6.75;6.25;;;;;;;;;;5084830;28;20203;-73
2023/06/25 13:24:45;;;;;;;6.82;6.32;;;;;;;;;;5084766;28;20409;-73
2023/06/25 13:27:12;;;;;;;6.75;5.90;;;;;;;;;;5084521;28;20216;-73
2023/06/25 13:29:38;;;;;;;6.45;5.85;;;;;;;;;;5084839;28;20226;-73
2023/06/25 13:32:05;;;;;;;6.88;6.35;;;;;;;;;;5084918;28;20217;-73
2023/06/25 13:34:31;;;;;;;6.57;6.00;;;;;;;;;;5084808;28;20199;-73
2023/06/25 13:36:57;;;;;;;7.10;6.55;;;;;;;;;;5084507;28;20196;-73
2023/06/25 13:39:25;;;;;;;6.63;6.13;;;;;;;;;;5084336;28;20192;-73
2023/06/25 13:41:51;;;;;;;7.00;6.40;;;;;;;;;;5084519;28;20199;-73
2023/06/25 13:44:18;;;;;;;6.90;6.25;;;;;;;;;;5084577;28;20200;-73
2023/06/25 13:46:44;;;;;;;6.47;5.97;;;;;;;;;;5084288;28;20195;-73
2023/06/25 13:49:10;;;;;;;6.78;6.18;;;;;;;;;;5084059;28;20543;-73
2023/06/25 13:51:37;;;;;;;7.00;6.40;;;;;;;;;;5084252;28;20196;-73
2023/06/25 13:54:03;;;;;;;7.15;6.65;;;;;;;;;;5084288;28;20274;-73
2023/06/25 13:56:31;;;;;;;6.25;5.80;;;;;;;;;;5084191;28;20196;-73
2023/06/25 13:58:57;;;;;;;6.70;6.22;;;;;;;;;;5083754;28;20192;-73
2023/06/25 14:01:23;;;;;;;6.82;6.13;;;;;;;;;;5084186;28;20387;-73
2023/06/25 14:03:50;;;;;;;6.72;6.20;;;;;;;;;;5084101;28;20382;-73
2023/06/25 14:06:16;;;;;;;6.72;6.22;;;;;;;;;;5084061;28;20196;-73
2023/06/25 14:08:42;;;;;;;7.28;5.90;;;;;;;;;;5083926;28;20220;-73
2023/06/25 14:11:09;;;;;;;6.30;5.90;;;;;;;;;;5083567;28;20242;-73
2023/06/25 14:13:37;;;;;;;6.35;5.95;;;;;;;;;;5083714;28;20202;-73
2023/06/25 14:16:03;;;;;;;6.60;6.13;;;;;;;;;;5083832;28;20200;-73
2023/06/25 14:18:29;;;;;;;7.22;6.45;;;;;;;;;;5083807;28;20192;-73
2023/06/25 14:20:55;;;;;;;6.68;6.03;;;;;;;;;;5083561;28;20196;-73
2023/06/25 14:23:22;;;;;;;7.28;6.68;;;;;;;;;;5083700;28;20385;-73
2023/06/25 14:25:48;;;;;;;6.25;5.85;;;;;;;;;;5083442;28;20196;-73
2023/06/25 14:28:14;;;;;;;6.68;6.07;;;;;;;;;;5083278;28;20220;-73
2023/06/25 14:30:42;;;;;;;6.20;5.80;;;;;;;;;;5083450;28;20517;-73
2023/06/25 14:33:08;;;;;;;6.53;6.03;;;;;;;;;;5082594;28;20203;-73
2023/06/25 14:35:35;;;;;;;6.55;6.05;;;;;;;;;;5083499;28;20207;-74
2023/06/25 14:38:01;;;;;;;6.10;5.70;;;;;;;;;;5083277;28;20266;-73
2023/06/25 14:40:27;;;;;;;6.78;6.15;;;;;;;;;;5082905;28;20429;-73